createdAt,value
2023-03-24T00:00:06.667Z,12.20
2023-03-24T00:01:27.255Z,15.93
2023-03-24T00:02:49.564Z,17.85
2023-03-24T00:04:10.507Z,17.08
2023-03-24T00:05:31.229Z,18.30
2023-03-24T00:06:52.175Z,16.25
2023-03-24T00:08:12.843Z,19.30
2023-03-24T00:09:33.498Z,16.65
2023-03-24T00:10:54.559Z,12.15
2023-03-24T00:12:14.873Z,13.55
2023-03-24T00:13:36.328Z,14.00
2023-03-24T00:14:57.391Z,14.35
2023-03-24T00:16:18.547Z,8.60
2023-03-24T00:17:39.373Z,18.58
2023-03-24T00:19:01.321Z,16.00
2023-03-24T00:20:23.083Z,12.98
2023-03-24T00:21:43.931Z,18.63
2023-03-24T00:23:04.965Z,13.60
2023-03-24T00:24:26.018Z,11.57
2023-03-24T00:25:46.395Z,12.87
2023-03-24T00:27:06.797Z,11.32
2023-03-24T00:28:27.362Z,11.23
2023-03-24T00:29:48.052Z,9.63
2023-03-24T00:31:09.068Z,15.43
2023-03-24T00:32:29.684Z,9.45
2023-03-24T00:33:50.401Z,15.07
2023-03-24T00:35:14.056Z,13.50
2023-03-24T00:36:35.658Z,10.30
2023-03-24T00:37:56.155Z,14.85
2023-03-24T00:39:17.454Z,12.57
2023-03-24T00:40:38.101Z,14.80
2023-03-24T00:41:58.805Z,16.20
2023-03-24T00:43:19.601Z,12.93
2023-03-24T00:44:40.416Z,9.98
2023-03-24T00:46:02.230Z,13.68
2023-03-24T00:48:42.949Z,13.73
2023-03-24T00:50:04.294Z,9.82
2023-03-24T00:51:26.851Z,13.55
2023-03-24T00:52:47.853Z,12.07
2023-03-24T00:54:10.495Z,12.63
2023-03-24T00:55:31.118Z,8.55
2023-03-24T00:56:51.748Z,12.80
2023-03-24T00:58:12.374Z,10.75
2023-03-24T00:59:33.229Z,12.68
2023-03-24T01:00:55.176Z,14.50
2023-03-24T01:02:17.332Z,21.10
2023-03-24T01:03:37.897Z,12.73
2023-03-24T01:04:59.991Z,13.90
2023-03-24T01:06:20.652Z,15.60
2023-03-24T01:07:42.490Z,11.57
2023-03-24T01:09:03.999Z,13.20
2023-03-24T01:10:25.591Z,10.52
2023-03-24T01:11:45.999Z,10.32
2023-03-24T01:13:06.679Z,12.73
2023-03-24T01:14:27.197Z,13.80
2023-03-24T01:15:47.936Z,10.88
2023-03-24T01:17:08.185Z,16.70
2023-03-24T01:18:29.138Z,12.50
2023-03-24T01:19:49.656Z,11.50
2023-03-24T01:21:11.399Z,11.80
2023-03-24T01:22:32.124Z,9.32
2023-03-24T01:23:53.888Z,10.68
2023-03-24T01:25:15.649Z,11.60
2023-03-24T01:26:36.575Z,14.05
2023-03-24T01:27:57.204Z,10.05
2023-03-24T01:29:17.841Z,10.13
2023-03-24T01:30:39.188Z,12.07
2023-03-24T01:31:59.729Z,12.20
2023-03-24T01:33:20.788Z,10.57
2023-03-24T01:34:41.229Z,9.30
2023-03-24T01:36:02.075Z,13.17
2023-03-24T01:37:22.589Z,11.77
2023-03-24T01:38:42.978Z,10.55
2023-03-24T01:40:06.603Z,11.23
2023-03-24T01:41:27.367Z,12.43
2023-03-24T01:42:48.149Z,11.88
2023-03-24T01:44:26.755Z,10.35
2023-03-24T01:46:02.393Z,7.95
2023-03-24T01:47:22.984Z,10.10
2023-03-24T01:48:48.371Z,10.00
2023-03-24T01:50:08.767Z,10.38
2023-03-24T01:51:31.351Z,11.82
2023-03-24T01:52:52.235Z,14.38
2023-03-24T01:54:16.908Z,12.75
2023-03-24T01:55:39.277Z,8.95
2023-03-24T01:57:03.973Z,13.18
2023-03-24T01:58:26.037Z,15.10
2023-03-24T01:59:48.377Z,10.90
2023-03-24T02:01:09.271Z,16.52
2023-03-24T02:02:29.726Z,16.55
2023-03-24T02:03:50.569Z,15.32
2023-03-24T02:05:12.490Z,22.55
2023-03-24T02:06:34.659Z,18.35
2023-03-24T02:08:02.198Z,17.77
2023-03-24T02:09:22.629Z,23.50
2023-03-24T02:10:45.167Z,21.33
2023-03-24T02:12:05.958Z,25.23
2023-03-24T02:13:26.581Z,25.13
2023-03-24T02:14:47.190Z,18.80
2023-03-24T02:16:17.250Z,22.60
2023-03-24T02:17:51.483Z,24.27
2023-03-24T02:19:46.907Z,22.42
2023-03-24T02:21:41.234Z,22.48
2023-03-24T02:23:35.169Z,32.30
2023-03-24T02:25:28.014Z,22.52
2023-03-24T02:27:02.093Z,18.65
2023-03-24T02:28:30.921Z,20.83
2023-03-24T02:30:13.982Z,22.95
2023-03-24T02:31:44.563Z,20.55
2023-03-24T02:33:38.430Z,21.15
2023-03-24T02:35:17.841Z,29.17
2023-03-24T02:37:03.114Z,26.85
2023-03-24T02:38:47.315Z,19.23
2023-03-24T02:40:33.763Z,16.80
2023-03-24T02:41:56.819Z,26.98
2023-03-24T02:43:22.009Z,28.02
2023-03-24T02:44:47.047Z,24.40
2023-03-24T02:46:12.583Z,35.03
2023-03-24T02:47:41.721Z,24.88
2023-03-24T02:49:09.519Z,31.00
2023-03-24T02:50:32.455Z,29.58
2023-03-24T02:51:57.980Z,25.10
2023-03-24T02:53:23.388Z,24.55
2023-03-24T02:54:46.986Z,28.33
2023-03-24T02:56:12.013Z,31.42
2023-03-24T02:57:35.290Z,24.63
2023-03-24T02:58:58.821Z,24.70
2023-03-24T03:00:23.479Z,20.10
2023-03-24T03:01:47.188Z,35.80
2023-03-24T03:03:11.710Z,28.98
2023-03-24T03:04:34.060Z,23.73
2023-03-24T03:05:57.135Z,23.63
2023-03-24T03:07:19.779Z,28.00
2023-03-24T03:08:41.303Z,22.27
2023-03-24T03:10:06.078Z,24.70
2023-03-24T03:11:28.053Z,26.02
2023-03-24T03:12:52.665Z,22.58
2023-03-24T03:14:16.135Z,21.60
2023-03-24T03:15:39.419Z,25.33
2023-03-24T03:17:01.882Z,23.88
2023-03-24T03:18:27.292Z,20.65
2023-03-24T03:19:50.779Z,20.42
2023-03-24T03:21:13.599Z,23.60
2023-03-24T03:22:39.521Z,28.92
2023-03-24T03:24:03.580Z,24.88
2023-03-24T03:25:26.580Z,22.52
2023-03-24T03:26:48.795Z,23.08
2023-03-24T03:28:10.730Z,18.65
2023-03-24T03:29:35.735Z,23.92
2023-03-24T03:30:58.190Z,25.55
2023-03-24T03:32:22.353Z,19.85
2023-03-24T03:33:46.229Z,21.48
2023-03-24T03:35:10.397Z,30.33
2023-03-24T03:36:33.584Z,25.63
2023-03-24T03:37:58.679Z,25.85
2023-03-24T03:39:23.286Z,26.02
2023-03-24T03:40:50.576Z,23.85
2023-03-24T03:42:12.414Z,29.08
2023-03-24T03:43:34.051Z,36.60
2023-03-24T03:44:54.665Z,29.08
2023-03-24T03:46:15.442Z,22.08
2023-03-24T03:47:36.235Z,34.53
2023-03-24T03:48:56.722Z,36.90
2023-03-24T03:50:17.731Z,27.85
2023-03-24T03:51:38.210Z,30.10
2023-03-24T03:52:58.714Z,34.13
2023-03-24T03:54:19.705Z,36.45
2023-03-24T03:55:40.099Z,45.35
2023-03-24T03:57:00.753Z,35.22
2023-03-24T03:58:22.453Z,30.77
2023-03-24T03:59:43.294Z,28.83
2023-03-24T04:01:07.591Z,36.33
2023-03-24T04:02:35.442Z,42.17
2023-03-24T04:04:24.559Z,37.70
2023-03-24T04:05:48.525Z,36.90
2023-03-24T04:07:15.094Z,34.17
2023-03-24T04:08:44.967Z,54.83
2023-03-24T04:10:11.652Z,36.92
2023-03-24T04:11:40.016Z,37.53
2023-03-24T04:13:11.177Z,40.90
2023-03-24T04:15:01.147Z,37.08
2023-03-24T04:16:28.213Z,41.97
2023-03-24T04:18:08.901Z,42.03
2023-03-24T04:19:38.146Z,45.63
2023-03-24T04:21:08.311Z,39.63
2023-03-24T04:22:39.989Z,41.50
2023-03-24T04:24:11.098Z,37.17
2023-03-24T04:25:37.769Z,48.13
2023-03-24T04:27:05.230Z,36.28
2023-03-24T04:28:32.997Z,43.38
2023-03-24T04:30:02.540Z,40.13
2023-03-24T04:31:26.882Z,47.55
2023-03-24T04:32:51.320Z,42.08
2023-03-24T04:34:16.056Z,39.00
2023-03-24T04:35:40.487Z,56.50
2023-03-24T04:37:05.502Z,40.85
2023-03-24T04:38:27.433Z,37.28
2023-03-24T04:39:50.049Z,41.60
2023-03-24T04:41:11.004Z,42.40
2023-03-24T04:42:34.472Z,62.45
2023-03-24T04:43:55.237Z,47.85
2023-03-24T04:45:18.002Z,55.35
2023-03-24T04:46:39.060Z,38.25
2023-03-24T04:48:01.509Z,49.90
2023-03-24T04:49:22.094Z,55.78
2023-03-24T04:50:53.634Z,40.85
2023-03-24T04:52:16.231Z,53.47
2023-03-24T04:53:38.160Z,51.75
2023-03-24T04:54:58.769Z,46.65
2023-03-24T04:56:29.530Z,44.42
2023-03-24T04:57:49.902Z,52.65
2023-03-24T04:59:10.517Z,56.70
2023-03-24T05:00:32.438Z,58.20
2023-03-24T05:01:52.784Z,48.90
2023-03-24T05:03:14.900Z,56.85
2023-03-24T05:05:55.284Z,55.53
2023-03-24T05:07:15.950Z,45.75
2023-03-24T05:08:36.158Z,51.80
2023-03-24T05:09:56.469Z,53.30
2023-03-24T05:11:17.213Z,57.60
2023-03-24T05:12:37.862Z,48.22
2023-03-24T05:13:58.542Z,55.83
2023-03-24T05:15:19.174Z,47.60
2023-03-24T05:16:41.205Z,50.83
2023-03-24T05:18:02.582Z,51.92
2023-03-24T05:19:23.477Z,39.83
2023-03-24T05:20:44.463Z,42.35
2023-03-24T05:22:05.065Z,53.15
2023-03-24T05:23:25.569Z,37.95
2023-03-24T05:24:46.202Z,48.08
2023-03-24T05:26:07.266Z,35.92
2023-03-24T05:27:27.796Z,43.55
2023-03-24T05:28:48.430Z,50.90
2023-03-24T05:30:10.114Z,44.53
2023-03-24T05:31:30.794Z,54.60
2023-03-24T05:32:52.853Z,38.90
2023-03-24T05:34:13.865Z,37.47
2023-03-24T05:35:34.670Z,45.20
2023-03-24T05:36:55.692Z,42.08
2023-03-24T05:38:16.031Z,35.53
2023-03-24T05:39:36.417Z,43.17
2023-03-24T05:40:57.859Z,46.30
2023-03-24T05:42:18.320Z,50.40
2023-03-24T05:43:39.131Z,49.25
2023-03-24T05:44:59.633Z,41.37
2023-03-24T05:46:19.968Z,45.55
2023-03-24T05:47:40.582Z,39.57
2023-03-24T05:49:02.243Z,40.95
2023-03-24T05:50:23.429Z,43.08
2023-03-24T05:51:43.886Z,44.50
2023-03-24T05:53:04.670Z,40.50
2023-03-24T05:54:28.064Z,51.33
2023-03-24T05:55:48.511Z,50.33
2023-03-24T05:57:12.430Z,34.88
2023-03-24T05:58:32.729Z,42.03
2023-03-24T05:59:53.337Z,39.40
2023-03-24T06:01:13.799Z,49.58
2023-03-24T06:02:34.649Z,39.30
2023-03-24T06:03:55.372Z,45.63
2023-03-24T06:05:17.528Z,42.08
2023-03-24T06:06:37.891Z,50.25
2023-03-24T06:07:59.155Z,40.40
2023-03-24T06:09:22.873Z,40.90
2023-03-24T06:10:43.375Z,45.17
2023-03-24T06:12:04.452Z,49.85
2023-03-24T06:13:25.048Z,39.95
2023-03-24T06:14:47.335Z,42.00
2023-03-24T06:16:08.881Z,48.10
2023-03-24T06:18:49.688Z,45.03
2023-03-24T06:20:11.593Z,45.53
2023-03-24T06:21:35.259Z,50.53
2023-03-24T06:22:56.144Z,37.75
2023-03-24T06:24:17.106Z,43.05
2023-03-24T06:25:37.702Z,35.30
2023-03-24T06:26:58.349Z,40.47
2023-03-24T06:28:18.951Z,42.25
2023-03-24T06:29:39.812Z,42.43
2023-03-24T06:31:00.625Z,39.92
2023-03-24T06:32:21.438Z,46.20
2023-03-24T06:33:42.591Z,46.78
2023-03-24T06:35:03.216Z,47.85
2023-03-24T06:36:23.684Z,40.58
2023-03-24T06:37:45.858Z,34.72
2023-03-24T06:39:06.237Z,46.35
2023-03-24T06:40:27.072Z,34.75
2023-03-24T06:41:47.716Z,46.45
2023-03-24T06:43:08.305Z,38.13
2023-03-24T06:44:28.774Z,34.05
2023-03-24T06:45:49.423Z,47.65
2023-03-24T06:47:09.824Z,45.17
2023-03-24T06:48:30.442Z,42.20
2023-03-24T06:49:51.081Z,40.60
2023-03-24T06:51:11.556Z,39.78
2023-03-24T06:52:32.132Z,37.58
2023-03-24T06:53:54.230Z,42.63
2023-03-24T06:55:14.674Z,45.72
2023-03-24T06:56:35.314Z,38.92
2023-03-24T06:57:55.978Z,41.70
2023-03-24T06:59:16.579Z,36.73
2023-03-24T07:00:36.986Z,37.28
2023-03-24T07:01:57.838Z,43.53
2023-03-24T07:03:18.611Z,52.33
2023-03-24T07:04:39.180Z,38.17
2023-03-24T07:06:00.235Z,38.53
2023-03-24T07:07:53.302Z,38.38
2023-03-24T07:09:03.858Z,52.75
2023-03-24T07:10:24.621Z,41.60
2023-03-24T07:11:45.193Z,35.77
2023-03-24T07:13:05.563Z,37.30
2023-03-24T07:14:26.478Z,43.20
2023-03-24T07:15:46.998Z,44.95
2023-03-24T07:17:08.689Z,37.05
2023-03-24T07:18:29.430Z,36.40
2023-03-24T07:19:50.077Z,43.00
2023-03-24T07:21:10.492Z,36.60
2023-03-24T07:22:31.369Z,37.03
2023-03-24T07:23:51.737Z,33.17
2023-03-24T07:25:13.710Z,40.60
2023-03-24T07:26:34.360Z,47.83
2023-03-24T07:27:55.263Z,33.80
2023-03-24T07:29:15.754Z,43.63
2023-03-24T07:30:40.465Z,36.35
2023-03-24T07:32:01.824Z,41.22
2023-03-24T07:33:22.573Z,29.55
2023-03-24T07:34:43.025Z,39.77
2023-03-24T07:36:03.874Z,39.78
2023-03-24T07:37:24.614Z,39.03
2023-03-24T07:38:45.290Z,30.65
2023-03-24T07:40:07.322Z,32.90
2023-03-24T07:41:29.223Z,35.08
2023-03-24T07:42:50.010Z,39.00
2023-03-24T07:44:10.730Z,34.75
2023-03-24T07:45:31.798Z,37.13
2023-03-24T07:46:52.283Z,37.58
2023-03-24T07:48:12.911Z,33.70
2023-03-24T07:49:33.642Z,35.73
2023-03-24T07:50:54.183Z,39.03
2023-03-24T07:52:15.193Z,26.73
2023-03-24T07:53:35.961Z,37.50
2023-03-24T07:54:56.566Z,33.47
2023-03-24T07:56:17.232Z,34.17
2023-03-24T07:57:41.139Z,36.83
2023-03-24T07:59:01.921Z,29.25
2023-03-24T08:00:23.415Z,33.33
2023-03-24T08:01:43.881Z,28.90
2023-03-24T08:03:04.533Z,28.73
2023-03-24T08:04:27.627Z,35.08
2023-03-24T08:05:48.650Z,28.83
2023-03-24T08:07:09.617Z,29.15
2023-03-24T08:08:30.132Z,37.67
2023-03-24T08:09:50.516Z,32.05
2023-03-24T08:11:10.954Z,35.28
2023-03-24T08:12:31.882Z,39.00
2023-03-24T08:13:53.627Z,30.50
2023-03-24T08:15:14.527Z,33.70
2023-03-24T08:16:35.080Z,25.60
2023-03-24T08:17:55.577Z,27.30
2023-03-24T08:19:16.541Z,25.90
2023-03-24T08:20:36.974Z,32.78
2023-03-24T08:21:57.673Z,29.40
2023-03-24T08:23:18.185Z,20.58
2023-03-24T08:24:38.851Z,29.25
2023-03-24T08:25:59.133Z,30.52
2023-03-24T08:27:19.701Z,28.93
2023-03-24T08:28:40.546Z,32.35
2023-03-24T08:30:04.381Z,33.80
2023-03-24T08:31:24.959Z,25.58
2023-03-24T08:32:45.615Z,25.55
2023-03-24T08:34:06.574Z,26.05
2023-03-24T08:35:29.537Z,32.75
2023-03-24T08:36:50.090Z,29.83
2023-03-24T08:38:10.687Z,21.27
2023-03-24T08:39:31.370Z,32.00
2023-03-24T08:40:51.701Z,25.95
2023-03-24T08:42:12.352Z,35.70
2023-03-24T08:43:33.957Z,26.73
2023-03-24T08:44:54.550Z,31.75
2023-03-24T08:46:16.258Z,31.88
2023-03-24T08:47:36.956Z,30.73
2023-03-24T08:48:57.474Z,29.52
2023-03-24T08:50:19.282Z,29.15
2023-03-24T08:51:39.871Z,29.52
2023-03-24T08:53:01.068Z,24.53
2023-03-24T08:54:21.579Z,34.13
2023-03-24T08:55:42.544Z,29.83
2023-03-24T08:57:03.303Z,28.45
2023-03-24T08:58:23.989Z,30.00
2023-03-24T08:59:44.668Z,24.08
2023-03-24T09:01:06.466Z,31.55
2023-03-24T09:02:28.131Z,25.52
2023-03-24T09:03:48.846Z,26.95
2023-03-24T09:05:09.880Z,27.45
2023-03-24T09:06:31.068Z,25.58
2023-03-24T09:09:12.174Z,21.73
2023-03-24T09:10:32.523Z,31.13
2023-03-24T09:11:53.044Z,40.85
2023-03-24T09:13:14.140Z,32.22
2023-03-24T09:15:59.319Z,29.88
2023-03-24T09:17:19.837Z,24.67
2023-03-24T09:18:41.845Z,19.60
2023-03-24T09:20:03.221Z,28.13
2023-03-24T09:21:23.892Z,29.48
2023-03-24T09:22:45.708Z,26.85
2023-03-24T09:24:07.365Z,31.80
2023-03-24T09:25:29.186Z,38.42
2023-03-24T09:26:49.855Z,27.00
2023-03-24T09:28:10.485Z,31.27
2023-03-24T09:29:31.384Z,25.02
2023-03-24T09:30:56.880Z,39.30
2023-03-24T09:32:17.347Z,28.05
2023-03-24T09:33:37.893Z,25.13
2023-03-24T09:35:33.753Z,33.63
2023-03-24T09:36:55.835Z,27.10
2023-03-24T09:38:16.537Z,39.67
2023-03-24T09:39:37.351Z,32.00
2023-03-24T09:40:59.507Z,35.25
2023-03-24T09:42:22.470Z,29.33
2023-03-24T09:43:46.290Z,38.33
2023-03-24T09:45:12.568Z,27.20
2023-03-24T09:46:35.702Z,30.50
2023-03-24T09:48:00.030Z,34.53
2023-03-24T09:49:24.452Z,29.15
2023-03-24T09:50:51.501Z,30.50
2023-03-24T09:52:14.857Z,33.55
2023-03-24T09:53:39.404Z,27.80
2023-03-24T09:55:00.590Z,34.20
2023-03-24T09:57:44.258Z,34.33
2023-03-24T09:59:06.565Z,34.83
2023-03-24T10:00:29.125Z,32.08
2023-03-24T10:01:49.642Z,26.58
2023-03-24T10:03:18.252Z,23.53
2023-03-24T10:04:39.185Z,30.65
2023-03-24T10:06:05.133Z,22.10
2023-03-24T10:07:32.007Z,28.38
2023-03-24T10:09:01.524Z,18.15
2023-03-24T10:10:28.265Z,29.77
2023-03-24T10:11:55.801Z,23.38
2023-03-24T10:13:21.701Z,29.95
2023-03-24T10:14:56.053Z,28.55
2023-03-24T10:16:23.033Z,22.30
2023-03-24T10:17:51.103Z,22.52
2023-03-24T10:19:24.600Z,27.70
2023-03-24T10:20:50.196Z,22.75
2023-03-24T10:22:15.141Z,39.17
2023-03-24T10:23:41.270Z,25.65
2023-03-24T10:25:08.351Z,29.27
2023-03-24T10:26:36.797Z,23.90
2023-03-24T10:28:00.014Z,25.77
2023-03-24T10:29:23.496Z,28.40
2023-03-24T10:30:45.704Z,32.15
2023-03-24T10:32:15.290Z,26.38
2023-03-24T10:33:40.348Z,22.13
2023-03-24T10:35:01.910Z,30.88
2023-03-24T10:36:22.731Z,26.63
2023-03-24T10:37:43.240Z,29.95
2023-03-24T10:39:16.584Z,21.20
2023-03-24T10:40:41.074Z,28.33
2023-03-24T10:42:02.197Z,24.05
2023-03-24T10:43:23.832Z,30.77
2023-03-24T10:44:44.893Z,26.48
2023-03-24T10:46:06.209Z,23.00
2023-03-24T10:47:30.704Z,15.68
2023-03-24T10:48:53.922Z,17.80
2023-03-24T10:50:15.833Z,24.77
2023-03-24T10:51:37.355Z,22.13
2023-03-24T10:54:21.610Z,25.50
2023-03-24T10:55:42.006Z,19.95
2023-03-24T10:57:04.323Z,19.70
2023-03-24T10:58:30.383Z,20.88
2023-03-24T10:59:54.017Z,24.15
2023-03-24T11:01:26.589Z,29.52
2023-03-24T11:02:56.057Z,26.92
2023-03-24T11:04:19.951Z,23.75
2023-03-24T11:05:41.765Z,20.60
2023-03-24T11:08:27.425Z,24.45
2023-03-24T11:09:58.044Z,29.98
2023-03-24T11:11:29.913Z,24.58
2023-03-24T11:13:00.693Z,27.65
2023-03-24T11:14:25.985Z,17.83
2023-03-24T11:15:54.088Z,16.60
2023-03-24T11:17:15.405Z,17.23
2023-03-24T11:18:36.055Z,22.98
2023-03-24T11:19:57.476Z,20.38
2023-03-24T11:21:18.669Z,23.60
2023-03-24T11:22:39.579Z,20.25
2023-03-24T11:24:01.652Z,21.38
2023-03-24T11:25:26.794Z,14.75
2023-03-24T11:26:59.154Z,23.30
2023-03-24T11:28:23.698Z,20.15
2023-03-24T11:29:48.834Z,15.45
2023-03-24T11:31:11.085Z,15.85
2023-03-24T11:32:32.050Z,15.82
2023-03-24T11:33:58.275Z,17.80
2023-03-24T11:35:19.052Z,21.08
2023-03-24T11:38:07.455Z,17.67
2023-03-24T11:39:29.333Z,12.57
2023-03-24T11:40:55.867Z,17.58
2023-03-24T11:42:17.592Z,24.90
2023-03-24T11:43:38.231Z,23.75
2023-03-24T11:44:58.706Z,17.77
2023-03-24T11:46:20.069Z,17.75
2023-03-24T11:47:41.314Z,16.02
2023-03-24T11:49:01.779Z,19.80
2023-03-24T11:50:25.736Z,11.18
2023-03-24T11:51:51.703Z,22.10
2023-03-24T11:53:16.059Z,21.23
2023-03-24T11:54:36.993Z,21.30
2023-03-24T11:56:03.282Z,30.63
2023-03-24T11:57:33.340Z,21.73
2023-03-24T11:58:59.187Z,16.08
2023-03-24T12:00:22.307Z,21.35
2023-03-24T12:01:48.042Z,19.38
2023-03-24T12:03:20.842Z,24.45
2023-03-24T12:05:14.678Z,19.05
2023-03-24T12:06:49.570Z,22.08
2023-03-24T12:08:23.787Z,24.33
2023-03-24T12:09:47.954Z,29.58
2023-03-24T12:11:12.977Z,21.80
2023-03-24T12:12:38.353Z,20.00
2023-03-24T12:14:01.105Z,28.33
2023-03-24T12:15:31.665Z,21.83
2023-03-24T12:16:54.551Z,29.10
2023-03-24T12:18:31.532Z,28.70
2023-03-24T12:20:08.766Z,23.50
2023-03-24T12:21:41.539Z,24.95
2023-03-24T12:23:07.893Z,18.15
2023-03-24T12:24:38.977Z,28.67
2023-03-24T12:26:08.637Z,25.98
2023-03-24T12:27:37.365Z,25.33
2023-03-24T12:29:03.186Z,21.83
2023-03-24T12:30:28.354Z,25.38
2023-03-24T12:32:09.073Z,33.00
2023-03-24T12:33:38.646Z,25.75
2023-03-24T12:35:26.299Z,24.27
2023-03-24T12:36:50.076Z,23.42
2023-03-24T12:38:34.684Z,19.50
2023-03-24T12:40:03.992Z,28.17
2023-03-24T12:41:47.132Z,22.90
2023-03-24T12:43:15.463Z,27.90
2023-03-24T12:44:54.574Z,26.52
2023-03-24T12:46:40.605Z,23.67
2023-03-24T12:48:19.248Z,20.77
2023-03-24T12:51:17.865Z,26.35
2023-03-24T12:53:05.105Z,26.15
2023-03-24T12:54:34.280Z,35.08
2023-03-24T12:55:57.689Z,23.15
2023-03-24T12:57:18.763Z,30.60
2023-03-24T12:58:42.722Z,22.83
2023-03-24T13:00:06.802Z,22.10
2023-03-24T13:01:33.729Z,24.67
2023-03-24T13:02:57.575Z,18.40
2023-03-24T13:04:21.761Z,28.48
2023-03-24T13:05:43.927Z,25.70
2023-03-24T13:07:08.502Z,27.65
2023-03-24T13:08:29.770Z,22.23
2023-03-24T13:09:53.884Z,27.92
2023-03-24T13:11:30.118Z,27.95
2023-03-24T13:12:56.315Z,22.80
2023-03-24T13:14:23.000Z,14.43
2023-03-24T13:15:45.635Z,21.42
2023-03-24T13:17:13.133Z,27.13
2023-03-24T13:18:36.425Z,15.80
2023-03-24T13:19:57.751Z,15.73
2023-03-24T13:21:19.152Z,23.63
2023-03-24T13:22:40.428Z,9.38
2023-03-24T13:24:04.085Z,10.45
2023-03-24T13:25:30.238Z,11.93
2023-03-24T13:26:56.794Z,7.90
2023-03-24T13:28:22.431Z,9.50
2023-03-24T13:30:08.752Z,12.77
2023-03-24T13:31:33.030Z,12.45
2023-03-24T13:32:55.846Z,12.27
2023-03-24T13:34:24.946Z,10.82
2023-03-24T13:35:54.587Z,11.77
2023-03-24T13:37:18.193Z,16.27
2023-03-24T13:38:40.179Z,12.20
2023-03-24T13:40:01.496Z,21.88
2023-03-24T13:41:23.200Z,22.30
2023-03-24T13:42:47.565Z,20.13
2023-03-24T13:44:15.327Z,15.75
2023-03-24T13:45:45.023Z,14.65
2023-03-24T13:47:10.079Z,18.27
2023-03-24T13:48:35.592Z,24.45
2023-03-24T13:50:00.565Z,18.33
2023-03-24T13:51:24.488Z,22.10
2023-03-24T13:52:47.661Z,13.30
2023-03-24T13:54:14.119Z,21.17
2023-03-24T13:55:36.973Z,20.90
2023-03-24T13:57:04.318Z,16.88
2023-03-24T13:58:28.001Z,22.17
2023-03-24T14:00:02.168Z,22.63
2023-03-24T14:01:35.321Z,25.08
2023-03-24T14:02:57.009Z,17.30
2023-03-24T14:05:59.396Z,18.90
2023-03-24T14:07:31.555Z,21.98
2023-03-24T14:09:01.843Z,25.05
2023-03-24T14:10:41.705Z,18.88
2023-03-24T14:12:23.278Z,20.73
2023-03-24T14:13:47.516Z,28.02
2023-03-24T14:15:21.193Z,17.02
2023-03-24T14:16:44.686Z,25.83
2023-03-24T14:18:15.450Z,20.98
2023-03-24T14:19:40.182Z,19.13
2023-03-24T14:21:01.501Z,17.38
2023-03-24T14:22:23.220Z,15.27
2023-03-24T14:23:44.905Z,18.02
2023-03-24T14:25:17.923Z,23.33
2023-03-24T14:26:38.294Z,19.35
2023-03-24T14:28:21.400Z,23.17
2023-03-24T14:29:48.090Z,23.67
2023-03-24T14:31:16.986Z,15.25
2023-03-24T14:32:40.127Z,27.48
2023-03-24T14:34:06.086Z,19.85
2023-03-24T14:35:33.205Z,16.20
2023-03-24T14:36:58.490Z,20.45
2023-03-24T14:38:22.923Z,21.17
2023-03-24T14:39:45.371Z,22.67
2023-03-24T14:41:08.680Z,21.88
2023-03-24T14:42:56.728Z,24.10
2023-03-24T14:44:54.104Z,24.65
2023-03-24T14:46:39.726Z,26.55
2023-03-24T14:48:01.824Z,18.75
2023-03-24T14:49:26.161Z,22.08
2023-03-24T14:50:46.747Z,21.20
2023-03-24T14:52:12.700Z,22.48
2023-03-24T14:53:41.478Z,17.75
2023-03-24T14:55:04.405Z,19.58
2023-03-24T14:56:29.839Z,23.63
2023-03-24T14:57:52.939Z,23.58
2023-03-24T14:59:22.612Z,18.95
2023-03-24T15:00:58.020Z,26.27
2023-03-24T15:02:34.936Z,19.65
2023-03-24T15:04:00.837Z,18.17
2023-03-24T15:05:27.818Z,19.45
2023-03-24T15:06:48.927Z,17.80
2023-03-24T15:08:14.432Z,21.67
2023-03-24T15:09:36.977Z,17.45
2023-03-24T15:11:00.721Z,22.80
2023-03-24T15:12:21.407Z,23.48
2023-03-24T15:13:43.158Z,17.10
2023-03-24T15:16:27.085Z,23.75
2023-03-24T15:17:48.613Z,17.13
2023-03-24T15:19:10.816Z,17.33
2023-03-24T15:20:35.189Z,20.30
2023-03-24T15:22:01.005Z,15.70
2023-03-24T15:23:23.450Z,23.55
2023-03-24T15:24:47.497Z,21.65
2023-03-24T15:26:12.468Z,21.92
2023-03-24T15:27:32.917Z,15.65
2023-03-24T15:28:58.243Z,18.40
2023-03-24T15:30:18.796Z,26.38
2023-03-24T15:31:41.446Z,25.30
2023-03-24T15:33:01.940Z,23.52
2023-03-24T15:34:27.114Z,16.48
2023-03-24T15:35:56.410Z,23.27
2023-03-24T15:37:21.302Z,24.08
2023-03-24T15:38:46.513Z,25.13
2023-03-24T15:40:28.048Z,15.82
2023-03-24T15:41:51.681Z,22.48
2023-03-24T15:43:18.526Z,19.23
2023-03-24T15:44:39.806Z,23.45
2023-03-24T15:46:11.107Z,19.50
2023-03-24T15:47:37.956Z,22.70
2023-03-24T15:48:59.525Z,25.60
2023-03-24T15:50:32.314Z,19.98
2023-03-24T15:51:56.736Z,24.65
2023-03-24T15:53:23.860Z,19.88
2023-03-24T15:54:44.965Z,24.63
2023-03-24T15:56:13.132Z,24.15
2023-03-24T15:57:39.767Z,18.90
2023-03-24T15:59:08.191Z,26.50
2023-03-24T16:00:31.590Z,19.02
2023-03-24T16:01:52.042Z,25.98
2023-03-24T16:03:13.380Z,20.42
2023-03-24T16:04:33.729Z,20.98
2023-03-24T16:05:55.685Z,18.98
2023-03-24T16:07:23.201Z,24.30
2023-03-24T16:08:44.001Z,24.52
2023-03-24T16:10:08.368Z,25.83
2023-03-24T16:11:29.481Z,21.10
2023-03-24T16:12:51.498Z,19.17
2023-03-24T16:14:20.699Z,24.17
2023-03-24T16:15:42.116Z,34.33
2023-03-24T16:18:26.200Z,24.77
2023-03-24T16:19:46.888Z,25.50
2023-03-24T16:21:12.461Z,27.77
2023-03-24T16:22:32.951Z,22.52
2023-03-24T16:23:55.572Z,26.65
2023-03-24T16:25:16.184Z,30.80
2023-03-24T16:26:37.135Z,23.05
2023-03-24T16:27:58.950Z,22.27
2023-03-24T16:29:21.279Z,22.40
2023-03-24T16:30:43.418Z,26.92
2023-03-24T16:32:04.615Z,26.15
2023-03-24T16:33:25.079Z,24.02
2023-03-24T16:34:45.573Z,20.25
2023-03-24T16:36:06.826Z,21.13
2023-03-24T16:37:27.448Z,20.50
2023-03-24T16:38:48.776Z,18.90
2023-03-24T16:40:20.738Z,19.30
2023-03-24T16:41:41.130Z,24.38
2023-03-24T16:43:03.223Z,20.38
2023-03-24T16:44:33.477Z,20.83
2023-03-24T16:45:54.193Z,17.05
2023-03-24T16:47:14.835Z,25.88
2023-03-24T16:48:35.645Z,17.67
2023-03-24T16:49:56.427Z,19.88
2023-03-24T16:51:17.328Z,20.45
2023-03-24T16:52:40.038Z,22.30
2023-03-24T16:54:00.804Z,21.85
2023-03-24T16:55:21.564Z,20.80
2023-03-24T16:56:42.290Z,18.65
2023-03-24T16:58:04.734Z,21.08
2023-03-24T16:59:27.996Z,17.85
2023-03-24T17:00:49.071Z,17.48
2023-03-24T17:02:09.856Z,15.40
2023-03-24T17:03:31.091Z,23.58
2023-03-24T17:04:51.586Z,18.83
2023-03-24T17:06:12.848Z,18.00
2023-03-24T17:07:33.094Z,20.00
2023-03-24T17:08:58.657Z,23.73
2023-03-24T17:10:19.440Z,17.63
2023-03-24T17:11:41.844Z,20.40
2023-03-24T17:13:02.185Z,15.68
2023-03-24T17:14:27.208Z,14.37
2023-03-24T17:15:48.047Z,25.02
2023-03-24T17:17:10.951Z,22.95
2023-03-24T17:18:31.371Z,19.23
2023-03-24T17:19:51.956Z,19.95
2023-03-24T17:21:13.674Z,24.35
2023-03-24T17:22:34.725Z,21.98
2023-03-24T17:23:55.592Z,25.75
2023-03-24T17:25:18.101Z,23.30
2023-03-24T17:26:39.281Z,22.02
2023-03-24T17:29:20.761Z,23.27
2023-03-24T17:30:43.121Z,21.02
2023-03-24T17:32:03.663Z,14.18
2023-03-24T17:33:26.793Z,26.87
2023-03-24T17:34:47.368Z,22.40
2023-03-24T17:36:13.912Z,18.70
2023-03-24T17:37:34.311Z,23.40
2023-03-24T17:38:55.402Z,21.17
2023-03-24T17:40:17.560Z,21.73
2023-03-24T17:41:38.072Z,24.17
2023-03-24T17:42:58.708Z,23.30
2023-03-24T17:44:19.302Z,24.90
2023-03-24T17:45:40.165Z,31.42
2023-03-24T17:47:02.016Z,13.10
2023-03-24T17:48:22.810Z,25.73
2023-03-24T17:49:44.488Z,13.82
2023-03-24T17:51:05.283Z,22.70
2023-03-24T17:53:47.751Z,23.80
2023-03-24T17:55:08.824Z,18.80
2023-03-24T17:56:29.483Z,20.45
2023-03-24T17:57:49.871Z,20.87
2023-03-24T17:59:19.408Z,16.65
2023-03-24T18:00:39.844Z,32.67
2023-03-24T18:02:01.829Z,20.20
2023-03-24T18:03:22.615Z,22.30
2023-03-24T18:04:43.598Z,24.42
2023-03-24T18:06:08.573Z,18.13
2023-03-24T18:07:29.126Z,24.52
2023-03-24T18:08:51.172Z,23.55
2023-03-24T18:10:11.643Z,23.48
2023-03-24T18:11:32.387Z,21.50
2023-03-24T18:12:54.292Z,13.13
2023-03-24T18:14:15.044Z,21.88
2023-03-24T18:15:35.643Z,21.23
2023-03-24T18:16:56.377Z,19.03
2023-03-24T18:18:18.449Z,24.88
2023-03-24T18:19:39.142Z,18.83
2023-03-24T18:20:59.666Z,23.50
2023-03-24T18:22:22.460Z,20.37
2023-03-24T18:23:43.246Z,20.52